Time;durP1;ratioP1;P1;durP2;ratioP2;P2;SDS_P1;SDS_P2;PMS_P1;PMS_P2;Temp;Humidity;BMP_temperature;BMP_pressure;BME280_temperature;BME280_humidity;BME280_pressure;Samples;Min_cycle;Max_cycle;Signal;HPM_P1;HPM_P2
2022/11/26 00:00:53;;;;;;;9.27;6.32;;;;;;;5.39;62.88;95098.25;4158243;28;20500;-56
2022/11/26 00:02:55;;;;;;;9.23;6.13;;;;;;;5.50;62.77;95099.06;4148009;28;20077;-53
2022/11/26 00:04:57;;;;;;;11.05;6.57;;;;;;;5.57;62.07;95096.84;4160881;28;20049;-54
2022/11/26 00:06:59;;;;;;;10.95;6.68;;;;;;;5.61;61.91;95093.03;4161299;28;20041;-55
2022/11/26 00:09:03;;;;;;;10.25;6.85;;;;;;;5.57;62.14;95098.59;4149034;28;20069;-54
2022/11/26 00:11:09;;;;;;;12.68;7.25;;;;;;;5.38;62.48;95097.44;4152547;28;20094;-55
2022/11/26 00:13:20;;;;;;;10.65;6.85;;;;;;;5.20;62.99;95099.63;4156101;28;20122;-55
2022/11/26 00:15:26;;;;;;;10.00;7.05;;;;;;;4.91;63.63;95101.84;4161809;28;20048;-54
2022/11/26 00:17:27;;;;;;;11.63;6.80;;;;;;;4.68;64.73;95099.16;4158553;28;20554;-56
2022/11/26 00:19:29;;;;;;;11.73;7.35;;;;;;;4.48;65.06;95105.84;4173577;28;20073;-58
2022/11/26 00:21:33;;;;;;;10.40;6.40;;;;;;;4.51;65.36;95097.00;4160837;28;20064;-51
2022/11/26 00:23:34;;;;;;;;;;;;;;;4.42;66.06;95100.28;4159311;28;20056;-53
2022/11/26 00:25:39;;;;;;;11.57;7.63;;;;;;;4.39;65.78;95098.72;4160150;28;20281;-51
2022/11/26 00:27:41;;;;;;;9.68;7.00;;;;;;;4.39;66.09;95096.13;4160394;28;20041;-53
2022/11/26 00:29:43;;;;;;;9.30;7.05;;;;;;;4.57;66.15;95099.16;4158483;28;20543;-54
2022/11/26 00:31:45;;;;;;;13.98;7.70;;;;;;;4.57;64.64;95100.91;4151642;28;20282;-51
2022/11/26 00:33:47;;;;;;;10.10;7.38;;;;;;;4.49;65.07;95099.69;4159578;28;20081;-55
2022/11/26 00:35:50;;;;;;;12.10;8.18;;;;;;;4.43;65.30;95096.72;4166455;28;20103;-53
2022/11/26 00:37:54;;;;;;;11.37;8.10;;;;;;;4.30;65.99;95096.78;4165837;28;20500;-52
2022/11/26 00:39:55;;;;;;;;;;;;;;;4.37;66.66;95095.41;4157994;28;20295;-56
2022/11/26 00:41:57;;;;;;;14.23;8.82;;;;;;;4.52;65.84;95103.84;4162985;28;19921;-53
2022/11/26 00:43:59;;;;;;;12.30;8.30;;;;;;;4.67;65.75;95113.09;4167945;28;20060;-54
2022/11/26 00:46:00;;;;;;;10.02;7.97;;;;;;;4.83;65.39;95115.38;4168276;28;20049;-53
2022/11/26 00:48:03;;;;;;;11.18;7.68;;;;;;;4.93;65.01;95113.75;4156855;28;20108;-53
2022/11/26 00:50:05;;;;;;;13.18;8.43;;;;;;;4.96;64.62;95122.25;4156353;28;20321;-56
2022/11/26 00:52:40;;;;;;;11.38;6.90;;;;;;;4.81;64.66;95121.63;4175241;28;20077;-55
2022/11/26 00:54:41;;;;;;;10.63;7.27;;;;;;;4.53;65.26;95122.84;4166863;28;20056;-55
2022/11/26 00:56:43;;;;;;;9.20;7.30;;;;;;;4.30;66.53;95122.72;4152572;28;20349;-55
2022/11/26 00:59:13;;;;;;;10.60;7.45;;;;;;;4.33;67.25;95127.69;4140698;28;20053;-54
2022/11/26 01:01:24;;;;;;;14.25;7.85;;;;;;;4.52;66.18;95122.00;4148218;28;20061;-56
2022/11/26 01:03:26;;;;;;;11.68;7.15;;;;;;;4.67;65.32;95126.09;4160449;28;20075;-56
2022/11/26 01:05:30;;;;;;;12.18;7.78;;;;;;;4.79;65.41;95126.94;4163109;28;20139;-57
2022/11/26 01:07:32;;;;;;;9.35;6.60;;;;;;;4.88;65.19;95123.69;4164162;28;20402;-55
2022/11/26 01:09:34;;;;;;;11.48;7.57;;;;;;;4.87;63.73;95124.59;4164528;28;20088;-59
2022/11/26 01:11:35;;;;;;;12.27;7.78;;;;;;;4.76;64.18;95121.97;4162386;28;20053;-58
2022/11/26 01:13:37;;;;;;;10.90;7.38;;;;;;;4.59;65.35;95122.38;4161460;28;20102;-55
2022/11/26 01:15:40;;;;;;;10.82;7.40;;;;;;;4.55;65.57;95132.16;4155540;28;20160;-53
2022/11/26 01:17:42;;;;;;;11.23;7.43;;;;;;;4.39;65.71;95137.63;4177943;28;20107;-54
2022/11/26 01:19:44;;;;;;;8.30;6.32;;;;;;;4.44;66.12;95138.13;4179265;28;20401;-50
2022/11/26 01:21:45;;;;;;;10.05;7.20;;;;;;;4.49;65.85;95142.97;4167455;28;20065;-53
2022/11/26 01:23:47;;;;;;;9.55;6.28;;;;;;;4.54;65.10;95142.63;4178398;28;20068;-51
2022/11/26 01:25:49;;;;;;;10.27;6.50;;;;;;;4.49;65.45;95133.41;4167096;28;20122;-58
2022/11/26 01:27:51;;;;;;;13.00;7.85;;;;;;;3.99;66.55;95132.69;4172540;28;20038;-52
2022/11/26 01:29:53;;;;;;;10.95;7.57;;;;;;;3.52;68.51;95138.59;4161440;28;20060;-51
2022/11/26 01:31:55;;;;;;;10.82;7.57;;;;;;;3.20;70.71;95152.78;4175603;28;20057;-56
2022/11/26 01:33:57;;;;;;;12.65;8.15;;;;;;;3.06;71.51;95151.13;4161958;28;20077;-54
2022/11/26 01:35:58;;;;;;;12.20;7.95;;;;;;;3.07;71.53;95144.19;4156246;28;20053;-54
2022/11/26 01:38:00;;;;;;;12.68;7.70;;;;;;;2.96;71.88;95146.66;4174291;28;20041;-55
2022/11/26 01:40:03;;;;;;;11.35;8.30;;;;;;;2.87;72.13;95151.53;4179039;28;20610;-52
2022/11/26 01:42:05;;;;;;;11.85;7.20;;;;;;;2.83;71.66;95146.66;4168870;28;20049;-54
2022/11/26 01:44:15;;;;;;;9.20;6.63;;;;;;;2.63;71.83;95148.78;4161073;28;20126;-55
2022/11/26 01:46:19;;;;;;;8.25;6.40;;;;;;;2.63;72.06;95150.56;4179278;28;20479;-55
2022/11/26 01:48:30;;;;;;;9.30;7.38;;;;;;;2.60;72.56;95138.66;4178789;28;20075;-57
2022/11/26 01:50:31;;;;;;;8.68;6.07;;;;;;;2.78;72.19;95146.97;4178485;28;20737;-52
2022/11/26 01:52:33;;;;;;;13.65;6.80;;;;;;;2.87;71.94;95146.34;4150908;28;20125;-52
2022/11/26 01:54:37;;;;;;;11.52;6.60;;;;;;;2.78;72.51;95141.78;4167901;28;20143;-51
2022/11/26 01:56:49;;;;;;;9.30;7.13;;;;;;;2.70;72.19;95146.63;4167722;28;20049;-56
2022/11/26 01:58:56;;;;;;;10.55;7.65;;;;;;;2.73;72.49;95148.19;4159581;28;20049;-53
2022/11/26 02:00:58;;;;;;;12.57;7.68;;;;;;;2.77;72.51;95144.47;4161369;28;20111;-53
2022/11/26 02:03:00;;;;;;;9.88;7.80;;;;;;;2.81;72.43;95145.91;4150572;28;20085;-56
2022/11/26 02:05:09;;;;;;;10.60;8.43;;;;;;;2.78;72.90;95144.38;4157218;28;20056;-54
2022/11/26 02:07:11;;;;;;;10.88;7.93;;;;;;;2.72;72.81;95149.94;4144254;28;20585;-54
2022/11/26 02:09:13;;;;;;;12.55;8.27;;;;;;;2.69;73.03;95147.56;4153263;28;20745;-56
2022/11/26 02:11:18;;;;;;;9.73;7.13;;;;;;;2.74;73.14;95142.91;4156737;28;20099;-57
2022/11/26 02:13:20;;;;;;;13.68;8.75;;;;;;;2.79;72.89;95143.44;4159034;28;20068;-56
2022/11/26 02:15:22;;;;;;;12.27;8.75;;;;;;;2.58;73.77;95145.69;4148332;28;20064;-54
2022/11/26 02:18:08;;;;;;;13.05;9.52;;;;;;;2.52;74.73;95142.63;4166689;28;20102;-52
2022/11/26 02:20:28;;;;;;;19.27;10.63;;;;;;;2.42;75.46;95148.41;4171051;28;20492;-52
2022/11/26 02:22:48;;;;;;;15.52;10.60;;;;;;;2.30;76.32;95151.78;4144310;28;20073;-53
2022/11/26 02:25:08;;;;;;;15.02;10.98;;;;;;;2.21;76.75;95142.84;4145396;28;20073;-57
2022/11/26 02:27:12;;;;;;;13.98;10.77;;;;;;;2.20;76.55;95146.38;4153281;28;20045;-54
2022/11/26 02:29:28;;;;;;;15.10;10.15;;;;;;;2.34;75.95;95135.13;4176249;28;20048;-53
2022/11/26 02:31:48;;;;;;;13.02;9.60;;;;;;;2.31;76.18;95140.53;4176232;28;20152;-57
2022/11/26 02:34:09;;;;;;;16.63;10.30;;;;;;;2.07;76.98;95144.66;4172268;28;20052;-55
2022/11/26 02:36:36;;;;;;;17.85;10.82;;;;;;;2.10;77.27;95134.94;4176152;28;20053;-56
2022/11/26 02:38:38;;;;;;;14.02;10.00;;;;;;;2.13;77.00;95126.16;4160506;28;20478;-56
2022/11/26 02:40:40;;;;;;;13.88;9.77;;;;;;;2.05;77.38;95129.25;4160175;28;20049;-55
2022/11/26 02:42:42;;;;;;;17.05;11.43;;;;;;;2.04;77.54;95132.75;4161952;28;20061;-52
2022/11/26 02:44:44;;;;;;;17.33;11.23;;;;;;;2.05;77.80;95130.06;4152989;28;20049;-54
2022/11/26 02:46:49;;;;;;;15.32;10.82;;;;;;;1.91;78.45;95144.78;4143338;28;20100;-54
2022/11/26 02:48:51;;;;;;;16.67;12.13;;;;;;;1.96;78.21;95143.59;4159426;28;20451;-57
2022/11/26 02:50:56;;;;;;;15.07;11.65;;;;;;;2.05;77.85;95140.41;4156041;28;20069;-54
2022/11/26 02:52:58;;;;;;;15.70;11.65;;;;;;;2.15;77.52;95135.50;4144050;28;20092;-54
2022/11/26 02:55:02;;;;;;;17.40;12.07;;;;;;;2.38;77.46;95143.53;4167085;28;20099;-54
2022/11/26 02:57:05;;;;;;;;;;;;;;;2.60;76.72;95137.81;4163614;28;20053;-55
2022/11/26 02:59:06;;;;;;;20.05;12.10;;;;;;;2.70;75.45;95140.63;4168200;28;20273;-56
2022/11/26 03:01:11;;;;;;;15.00;11.68;;;;;;;2.51;75.79;95143.56;4169637;28;20493;-53
2022/11/26 03:03:25;;;;;;;18.13;12.00;;;;;;;2.45;76.77;95143.06;4175081;28;20066;-56
2022/11/26 03:05:31;;;;;;;18.60;12.77;;;;;;;2.41;77.08;95144.19;4152222;28;20120;-54
2022/11/26 03:07:33;;;;;;;18.45;12.93;;;;;;;2.22;77.52;95159.22;4176613;28;20080;-54
2022/11/26 03:09:50;;;;;;;18.85;14.13;;;;;;;2.27;77.69;95154.56;4175424;28;20064;-56
2022/11/26 03:11:51;;;;;;;18.67;13.70;;;;;;;2.31;77.56;95150.84;4168964;28;20500;-53
2022/11/26 03:13:53;;;;;;;17.58;13.40;;;;;;;2.27;77.33;95154.56;4175644;28;20045;-52
2022/11/26 03:15:55;;;;;;;19.25;13.98;;;;;;;2.36;77.62;95153.97;4165474;28;20466;-51
2022/11/26 03:17:57;;;;;;;18.48;12.95;;;;;;;2.58;77.68;95158.63;4159745;28;20049;-50
2022/11/26 03:19:58;;;;;;;17.77;13.32;;;;;;;2.79;76.30;95166.72;4174476;28;20466;-53
2022/11/26 03:22:00;;;;;;;19.95;13.85;;;;;;;2.97;75.73;95164.69;4165020;28;20049;-53
2022/11/26 03:24:02;;;;;;;18.77;12.85;;;;;;;3.16;75.23;95168.63;4172720;28;20594;-52
2022/11/26 03:26:04;;;;;;;16.92;12.65;;;;;;;3.32;74.31;95174.44;4160742;28;20049;-54
2022/11/26 03:28:05;;;;;;;19.95;12.75;;;;;;;3.33;73.21;95178.69;4159495;28;20731;-55
2022/11/26 03:30:07;;;;;;;16.17;11.98;;;;;;;3.36;73.19;95186.25;4175153;28;20118;-55
2022/11/26 03:32:09;;;;;;;14.82;11.55;;;;;;;3.40;72.48;95186.88;4177302;28;20107;-52
2022/11/26 03:34:11;;;;;;;15.38;10.70;;;;;;;3.38;73.06;95199.94;4177370;28;20536;-56
2022/11/26 03:36:12;;;;;;;16.73;11.15;;;;;;;3.44;72.52;95198.69;4165602;28;20049;-57
2022/11/26 03:38:15;;;;;;;13.82;8.98;;;;;;;3.37;71.56;95195.69;4161749;28;20044;-57
2022/11/26 03:40:17;;;;;;;13.88;9.98;;;;;;;3.10;72.35;95202.69;4163896;28;20057;-53
2022/11/26 03:42:19;;;;;;;16.27;9.25;;;;;;;3.03;73.14;95194.50;4163975;28;20075;-56
2022/11/26 03:44:20;;;;;;;13.80;9.07;;;;;;;3.02;72.84;95193.69;4155040;28;20102;-56
2022/11/26 03:46:22;;;;;;;13.52;8.98;;;;;;;3.06;72.48;95197.72;4159734;28;20049;-54
2022/11/26 03:48:24;;;;;;;12.68;9.00;;;;;;;3.07;72.37;95201.13;4150126;28;20125;-54
2022/11/26 03:50:26;;;;;;;15.15;9.25;;;;;;;3.18;72.42;95203.84;4157622;28;20080;-53
2022/11/26 03:52:27;;;;;;;15.43;9.80;;;;;;;3.23;72.15;95206.16;4162574;28;20071;-54
2022/11/26 03:54:29;;;;;;;11.55;9.50;;;;;;;2.93;72.36;95209.81;4153720;28;20049;-52
2022/11/26 03:56:30;;;;;;;13.70;9.88;;;;;;;2.72;73.43;95206.84;4163406;28;20366;-55
2022/11/26 03:58:33;;;;;;;15.90;10.35;;;;;;;2.73;73.69;95218.03;4149507;28;20046;-53
2022/11/26 04:00:35;;;;;;;14.52;10.55;;;;;;;2.59;74.43;95216.34;4162891;28;20056;-58
2022/11/26 04:02:36;;;;;;;14.55;10.52;;;;;;;2.38;75.27;95224.50;4154668;28;20041;-52
2022/11/26 04:04:38;;;;;;;15.40;10.88;;;;;;;2.19;76.18;95226.59;4154608;28;20490;-53
2022/11/26 04:06:40;;;;;;;14.95;10.32;;;;;;;2.02;76.31;95228.47;4152920;28;20066;-52
2022/11/26 04:08:42;;;;;;;15.38;11.35;;;;;;;2.10;76.68;95225.41;4153259;28;20045;-53
2022/11/26 04:10:44;;;;;;;14.65;11.73;;;;;;;2.07;76.67;95240.28;4158294;28;20046;-50
2022/11/26 04:12:46;;;;;;;14.90;11.48;;;;;;;1.85;77.44;95241.59;4154699;28;20572;-52
2022/11/26 04:14:47;;;;;;;15.35;11.43;;;;;;;1.82;78.10;95241.78;4153045;28;20140;-52
2022/11/26 04:16:49;;;;;;;15.98;11.50;;;;;;;1.93;77.70;95239.34;4164432;28;20091;-55
2022/11/26 04:18:51;;;;;;;16.42;12.05;;;;;;;2.13;77.48;95240.75;4164468;28;20045;-53
2022/11/26 04:20:52;;;;;;;18.33;12.27;;;;;;;2.12;76.52;95243.41;4164098;28;20052;-51
2022/11/26 04:22:54;;;;;;;17.02;11.60;;;;;;;2.22;76.35;95245.34;4169024;28;20470;-55
2022/11/26 04:24:56;;;;;;;16.75;11.82;;;;;;;2.17;76.44;95249.97;4176218;28;20126;-53
2022/11/26 04:26:57;;;;;;;15.77;12.45;;;;;;;1.98;76.71;95245.09;4176269;28;20509;-53
2022/11/26 04:28:59;;;;;;;16.40;12.55;;;;;;;1.72;77.72;95262.16;4175150;28;20079;-56
2022/11/26 04:31:01;;;;;;;17.25;13.50;;;;;;;1.55;79.26;95255.41;4176089;28;20132;-53
2022/11/26 04:33:03;;;;;;;15.95;12.65;;;;;;;1.34;80.13;95252.34;4176542;28;20060;-54
2022/11/26 04:35:06;;;;;;;20.83;14.35;;;;;;;1.38;79.73;95260.75;4174910;28;20067;-54
2022/11/26 04:37:08;;;;;;;18.02;13.52;;;;;;;1.23;80.25;95265.88;4163182;28;20054;-54
2022/11/26 04:39:11;;;;;;;17.67;13.82;;;;;;;0.94;81.22;95266.69;4164596;28;20061;-56
2022/11/26 04:41:13;;;;;;;18.45;12.98;;;;;;;0.95;81.87;95265.78;4169094;28;20052;-53
2022/11/26 04:43:14;;;;;;;17.45;12.48;;;;;;;0.98;81.35;95271.59;4165186;28;20133;-55
2022/11/26 04:45:16;;;;;;;17.00;12.63;;;;;;;0.93;81.86;95276.19;4158170;28;20053;-54
2022/11/26 04:47:18;;;;;;;19.17;13.82;;;;;;;0.99;82.12;95273.28;4164732;28;20425;-51
2022/11/26 04:49:19;;;;;;;21.52;14.93;;;;;;;1.00;82.04;95274.09;4154628;28;20129;-54
2022/11/26 04:51:21;;;;;;;22.23;14.32;;;;;;;1.04;81.71;95270.41;4157787;28;20085;-53
2022/11/26 04:53:23;;;;;;;17.90;14.23;;;;;;;1.00;82.21;95280.06;4163679;28;20520;-56
2022/11/26 04:55:24;;;;;;;20.60;14.50;;;;;;;1.02;81.67;95282.56;4157962;28;20462;-53
2022/11/26 04:57:26;;;;;;;22.33;14.43;;;;;;;1.08;81.95;95289.97;4155448;28;20136;-56
2022/11/26 04:59:28;;;;;;;18.55;13.23;;;;;;;1.37;81.95;95287.47;4157395;28;20203;-56
2022/11/26 05:01:30;;;;;;;19.35;14.13;;;;;;;1.52;80.39;95293.50;4156660;28;20053;-52
2022/11/26 05:03:31;;;;;;;22.67;14.35;;;;;;;1.74;80.15;95290.47;4167343;28;20579;-52
2022/11/26 05:05:33;;;;;;;18.48;13.50;;;;;;;1.93;79.04;95295.38;4163812;28;20057;-52
2022/11/26 05:07:35;;;;;;;18.02;14.15;;;;;;;2.12;78.44;95293.34;4152946;28;20170;-57
2022/11/26 05:09:37;;;;;;;19.15;14.73;;;;;;;2.23;77.25;95292.69;4162201;28;20108;-55
2022/11/26 05:11:38;;;;;;;17.10;12.85;;;;;;;2.33;77.13;95292.97;4169124;28;20114;-54
2022/11/26 05:13:40;;;;;;;18.60;13.60;;;;;;;2.50;76.60;95291.94;4151600;28;20077;-57
2022/11/26 05:15:42;;;;;;;17.75;15.00;;;;;;;2.58;75.67;95295.69;4158213;28;20057;-52
2022/11/26 05:17:43;;;;;;;16.38;12.43;;;;;;;2.69;75.39;95294.19;4172484;28;20052;-54
2022/11/26 05:19:45;;;;;;;16.85;12.82;;;;;;;2.78;75.25;95293.63;4178899;28;20080;-54
2022/11/26 05:21:47;;;;;;;18.40;12.88;;;;;;;2.86;74.58;95302.56;4167070;28;20087;-57
2022/11/26 05:23:48;;;;;;;18.75;12.95;;;;;;;2.88;73.84;95302.44;4159708;28;20046;-54
2022/11/26 05:25:50;;;;;;;16.30;11.95;;;;;;;2.92;73.67;95311.66;4152595;28;20495;-55
2022/11/26 05:27:52;;;;;;;16.80;11.70;;;;;;;2.96;73.83;95302.78;4162884;28;20625;-55
2022/11/26 05:29:54;;;;;;;16.02;11.70;;;;;;;3.04;73.44;95305.72;4148305;28;20116;-56
2022/11/26 05:31:56;;;;;;;16.35;12.10;;;;;;;3.05;73.14;95311.72;4157629;28;20045;-54
2022/11/26 05:33:57;;;;;;;17.58;12.20;;;;;;;3.08;73.12;95309.78;4158097;28;20053;-57
2022/11/26 05:35:59;;;;;;;15.20;11.20;;;;;;;3.15;72.84;95311.97;4153604;28;20503;-55
2022/11/26 05:38:00;;;;;;;17.98;11.57;;;;;;;3.20;72.58;95315.06;4174896;28;20079;-56
2022/11/26 05:40:03;;;;;;;15.55;10.88;;;;;;;3.24;72.40;95317.38;4164388;28;20050;-56
2022/11/26 05:42:05;;;;;;;15.13;10.63;;;;;;;3.25;72.09;95318.22;4157599;28;20084;-53
2022/11/26 05:44:10;;;;;;;16.00;11.15;;;;;;;3.26;72.18;95325.03;4158920;28;20045;-59
2022/11/26 05:46:13;;;;;;;16.30;10.93;;;;;;;3.25;71.66;95326.81;4162270;28;20068;-56
2022/11/26 05:48:15;;;;;;;14.32;10.10;;;;;;;3.24;71.70;95322.53;4153917;28;20124;-57
2022/11/26 05:50:17;;;;;;;17.60;10.50;;;;;;;3.28;71.74;95320.59;4157875;28;20124;-53
2022/11/26 05:52:18;;;;;;;13.93;10.15;;;;;;;3.33;71.55;95318.53;4159634;28;20060;-54
2022/11/26 05:54:20;;;;;;;17.90;10.18;;;;;;;3.33;71.27;95321.13;4152343;28;20076;-58
2022/11/26 05:56:22;;;;;;;19.75;9.95;;;;;;;3.25;71.05;95323.41;4162911;28;20061;-57
2022/11/26 05:58:24;;;;;;;12.98;10.02;;;;;;;3.20;71.35;95315.91;4148161;28;20144;-55
2022/11/26 06:00:25;;;;;;;13.95;9.60;;;;;;;3.17;71.49;95323.06;4149059;28;20212;-57
2022/11/26 06:02:27;;;;;;;15.05;10.60;;;;;;;3.16;71.57;95323.97;4162474;28;20049;-51
2022/11/26 06:04:29;;;;;;;14.68;11.02;;;;;;;3.20;71.74;95323.66;4162217;28;20141;-55
2022/11/26 06:06:31;;;;;;;15.15;10.48;;;;;;;3.17;71.50;95323.88;4162773;28;20115;-52
2022/11/26 06:08:33;;;;;;;14.20;10.65;;;;;;;3.14;72.24;95324.09;4162222;28;20466;-57
2022/11/26 06:10:35;;;;;;;16.02;10.40;;;;;;;3.22;71.86;95327.00;4153962;28;20068;-52
2022/11/26 06:12:36;;;;;;;14.82;11.13;;;;;;;3.34;71.71;95333.16;4157034;28;20057;-57
2022/11/26 06:14:38;;;;;;;16.45;12.52;;;;;;;3.46;71.14;95332.38;4173664;28;20115;-54
2022/11/26 06:16:43;;;;;;;16.52;11.45;;;;;;;3.57;70.78;95329.06;4162692;28;20458;-52
2022/11/26 06:18:45;;;;;;;17.02;11.10;;;;;;;3.65;70.60;95339.72;4162414;28;20041;-54
2022/11/26 06:20:47;;;;;;;16.27;11.52;;;;;;;3.80;70.46;95342.25;4162994;28;20069;-52
2022/11/26 06:22:48;;;;;;;15.38;10.93;;;;;;;3.89;70.75;95341.63;4154187;28;20045;-56
2022/11/26 06:24:50;;;;;;;15.20;11.60;;;;;;;3.95;69.60;95340.41;4145047;28;20053;-54
2022/11/26 06:26:52;;;;;;;16.15;11.88;;;;;;;3.98;69.28;95342.78;4145457;28;20072;-58
2022/11/26 06:28:53;;;;;;;17.40;11.40;;;;;;;4.06;70.12;95336.13;4144336;28;20066;-54
2022/11/26 06:30:55;;;;;;;13.20;10.50;;;;;;;4.15;69.15;95337.31;4153627;28;20107;-56
2022/11/26 06:32:57;;;;;;;18.02;11.68;;;;;;;4.23;69.05;95336.75;4150388;28;20053;-55
2022/11/26 06:34:58;;;;;;;13.95;10.68;;;;;;;4.31;69.00;95339.66;4159135;28;20046;-58
2022/11/26 06:37:00;;;;;;;14.85;11.55;;;;;;;4.43;69.15;95341.44;4161982;28;20473;-57
2022/11/26 06:39:02;;;;;;;15.25;11.75;;;;;;;4.43;68.19;95333.66;4161607;28;20068;-54
2022/11/26 06:41:06;;;;;;;13.82;11.40;;;;;;;4.40;68.36;95340.81;4177350;28;20068;-57
2022/11/26 06:43:07;;;;;;;;;;;;;;;4.48;68.01;95347.13;4164799;28;20046;-55
2022/11/26 06:45:10;;;;;;;16.52;11.98;;;;;;;4.50;68.21;95340.06;4154612;28;19928;-55
2022/11/26 06:47:12;;;;;;;16.75;12.30;;;;;;;4.49;68.45;95343.56;4162139;28;20084;-55
2022/11/26 06:49:14;;;;;;;21.50;14.75;;;;;;;4.56;68.16;95343.16;4158105;28;20042;-52
2022/11/26 06:51:19;;;;;;;18.50;13.07;;;;;;;4.48;68.24;95344.53;4159830;28;20060;-54
2022/11/26 06:53:20;;;;;;;18.20;13.38;;;;;;;4.41;68.52;95343.31;4166519;28;20053;-56
2022/11/26 06:55:22;;;;;;;15.23;12.18;;;;;;;4.32;68.99;95346.50;4159747;28;20053;-55
2022/11/26 06:57:24;;;;;;;16.33;11.45;;;;;;;4.34;68.80;95356.78;4155007;28;20044;-58
2022/11/26 06:59:25;;;;;;;19.92;12.82;;;;;;;4.38;68.53;95356.47;4176411;28;20143;-57
2022/11/26 07:01:27;;;;;;;15.55;12.02;;;;;;;4.41;68.56;95356.28;4176427;28;20056;-54
2022/11/26 07:03:29;;;;;;;15.30;11.98;;;;;;;4.34;68.70;95359.38;4175897;28;20139;-52
2022/11/26 07:05:34;;;;;;;16.38;11.32;;;;;;;4.36;69.63;95357.50;4176579;28;20045;-55
2022/11/26 07:07:39;;;;;;;15.43;11.25;;;;;;;4.37;68.77;95365.19;4176417;28;20049;-54
2022/11/26 07:09:40;;;;;;;21.02;11.15;;;;;;;4.42;69.05;95357.91;4163314;28;20080;-54
2022/11/26 07:11:42;;;;;;;16.58;11.98;;;;;;;4.46;68.69;95358.53;4159883;28;20049;-57
2022/11/26 07:13:44;;;;;;;17.52;12.27;;;;;;;4.49;68.71;95356.53;4168919;28;20045;-54
2022/11/26 07:15:45;;;;;;;13.60;10.32;;;;;;;4.44;68.71;95363.81;4164443;28;20421;-54
2022/11/26 07:17:47;;;;;;;14.07;11.13;;;;;;;4.49;68.65;95361.75;4161173;28;20465;-56
2022/11/26 07:19:49;;;;;;;14.57;11.25;;;;;;;4.50;68.39;95357.41;4174158;28;20495;-53
2022/11/26 07:21:51;;;;;;;17.08;11.43;;;;;;;4.57;68.55;95352.63;4171434;28;20081;-57
2022/11/26 07:23:53;;;;;;;17.02;12.48;;;;;;;4.65;68.61;95356.34;4149666;28;20126;-53
2022/11/26 07:26:00;;;;;;;15.27;11.13;;;;;;;4.65;68.15;95353.75;4170297;28;20542;-54
2022/11/26 07:28:02;;;;;;;17.13;12.35;;;;;;;4.67;68.33;95362.25;4149352;28;20116;-55
2022/11/26 07:30:05;;;;;;;14.20;11.68;;;;;;;4.76;68.17;95352.16;4156647;28;20669;-56
2022/11/26 07:32:07;;;;;;;15.75;11.25;;;;;;;4.84;68.15;95355.03;4149701;28;20083;-55
2022/11/26 07:34:08;;;;;;;16.58;12.93;;;;;;;4.84;67.28;95355.88;4161016;28;20500;-54
2022/11/26 07:36:23;;;;;;;16.17;12.10;;;;;;;4.91;67.47;95356.28;4150998;28;20522;-54
2022/11/26 07:38:25;;;;;;;15.52;11.10;;;;;;;4.96;67.61;95361.13;4164209;28;20060;-58
2022/11/26 07:40:26;;;;;;;15.02;11.05;;;;;;;4.95;67.85;95354.28;4168871;28;20446;-56
2022/11/26 07:42:30;;;;;;;15.27;11.43;;;;;;;4.90;67.56;95368.44;4160562;28;20060;-55
2022/11/26 07:44:32;;;;;;;18.02;12.80;;;;;;;4.81;67.75;95363.03;4157238;28;20136;-53
2022/11/26 07:46:34;;;;;;;17.60;11.52;;;;;;;4.54;67.73;95377.00;4169882;28;20080;-53
2022/11/26 07:48:38;;;;;;;14.75;11.77;;;;;;;4.19;68.90;95388.00;4174241;28;20044;-50
2022/11/26 07:50:43;;;;;;;21.52;14.15;;;;;;;4.27;70.14;95375.34;4167775;28;20048;-53
2022/11/26 07:52:45;;;;;;;20.40;14.70;;;;;;;4.09;70.36;95382.63;4173719;28;20071;-56
2022/11/26 07:54:47;;;;;;;20.05;13.85;;;;;;;3.86;70.43;95378.97;4173801;28;20128;-52
2022/11/26 07:56:48;;;;;;;24.98;15.95;;;;;;;3.74;71.94;95384.13;4174061;28;20129;-56
2022/11/26 07:58:50;;;;;;;23.15;16.65;;;;;;;3.59;72.66;95391.97;4166156;28;20046;-57
2022/11/26 08:00:52;;;;;;;22.63;16.70;;;;;;;3.72;72.63;95396.34;4154062;28;20044;-54
2022/11/26 08:02:55;;;;;;;24.98;17.33;;;;;;;3.48;72.57;95402.19;4172890;28;20060;-53
2022/11/26 08:04:57;;;;;;;23.63;17.10;;;;;;;3.35;73.08;95398.72;4171084;28;20136;-56
2022/11/26 08:06:59;;;;;;;25.25;18.17;;;;;;;3.49;73.62;95401.28;4168440;28;20481;-57
2022/11/26 08:09:01;;;;;;;22.50;17.75;;;;;;;3.73;72.79;95396.25;4169055;28;20051;-53
2022/11/26 08:11:03;;;;;;;24.90;16.63;;;;;;;4.02;72.14;95393.50;4157165;28;20084;-57
2022/11/26 08:13:05;;;;;;;22.10;16.38;;;;;;;4.24;71.48;95391.13;4161344;28;20436;-56
2022/11/26 08:15:24;;;;;;;20.38;14.45;;;;;;;4.46;70.24;95390.50;4148186;28;20139;-55
2022/11/26 08:17:26;;;;;;;17.35;13.70;;;;;;;4.60;69.62;95388.72;4153693;28;20056;-56
2022/11/26 08:19:27;;;;;;;21.48;14.80;;;;;;;4.77;68.99;95382.38;4164479;28;20049;-55
2022/11/26 08:21:29;;;;;;;19.80;14.40;;;;;;;4.91;67.86;95384.84;4166355;28;20066;-58
2022/11/26 08:23:31;;;;;;;17.45;12.55;;;;;;;5.01;67.64;95388.44;4166906;28;20046;-56
2022/11/26 08:25:34;;;;;;;18.20;13.48;;;;;;;5.08;67.23;95388.84;4173263;28;20099;-57
2022/11/26 08:27:42;;;;;;;19.73;15.40;;;;;;;5.14;67.31;95390.97;4173553;28;20105;-57
2022/11/26 08:29:44;;;;;;;17.63;12.27;;;;;;;5.20;66.59;95400.13;4169705;28;20084;-53
2022/11/26 08:31:46;;;;;;;15.70;11.27;;;;;;;5.21;66.54;95392.22;4172363;28;20051;-54
2022/11/26 08:33:48;;;;;;;12.75;9.95;;;;;;;5.14;65.97;95390.97;4167205;28;20041;-59
2022/11/26 08:35:53;;;;;;;12.45;9.30;;;;;;;5.08;66.08;95399.22;4165908;28;20075;-57
2022/11/26 08:38:08;;;;;;;13.77;9.27;;;;;;;5.09;66.06;95393.09;4150629;28;20080;-53
2022/11/26 08:40:10;;;;;;;12.50;9.43;;;;;;;5.13;66.41;95394.53;4168761;28;20049;-57
2022/11/26 08:42:14;;;;;;;18.70;12.40;;;;;;;5.23;66.69;95390.34;4154487;28;20050;-53
2022/11/26 08:44:16;;;;;;;20.58;15.95;;;;;;;4.78;67.01;95397.03;4162803;28;20049;-56
2022/11/26 08:46:18;;;;;;;19.13;15.18;;;;;;;4.48;68.14;95405.97;4162203;28;20069;-57
2022/11/26 08:48:20;;;;;;;17.25;12.68;;;;;;;3.95;69.94;95400.84;4162739;28;20211;-53
2022/11/26 08:50:21;;;;;;;18.17;13.10;;;;;;;4.18;70.39;95408.88;4151750;28;20123;-55
2022/11/26 08:52:24;;;;;;;21.33;12.88;;;;;;;4.42;69.78;95404.59;4163781;28;20399;-55
2022/11/26 08:54:26;;;;;;;20.90;13.35;;;;;;;4.70;68.65;95395.75;4152683;28;20069;-57
2022/11/26 08:56:27;;;;;;;16.33;12.27;;;;;;;4.95;67.29;95395.81;4154268;28;20366;-57
2022/11/26 08:58:32;;;;;;;14.60;11.70;;;;;;;5.06;66.96;95398.50;4158631;28;20423;-57
2022/11/26 09:00:34;;;;;;;15.38;11.63;;;;;;;5.21;66.41;95404.38;4162878;28;20393;-58
2022/11/26 09:02:36;;;;;;;16.95;12.02;;;;;;;5.33;66.45;95404.34;4156554;28;20065;-55
2022/11/26 09:04:38;;;;;;;14.77;11.63;;;;;;;5.38;65.81;95413.56;4147845;28;20136;-56
2022/11/26 09:06:40;;;;;;;17.77;12.18;;;;;;;5.50;65.44;95404.88;4160972;28;20099;-54
2022/11/26 09:11:02;;;;;;;14.95;11.75;;;;;;;5.79;64.31;95399.34;4155900;28;20132;-56
2022/11/26 09:13:04;;;;;;;21.10;12.35;;;;;;;5.99;64.77;95403.94;4158923;28;20064;-59
2022/11/26 09:15:06;;;;;;;20.88;15.15;;;;;;;5.73;64.19;95400.63;4150258;28;20063;-54
2022/11/26 09:17:10;;;;;;;17.92;13.52;;;;;;;5.60;64.87;95405.88;4143961;28;20132;-55
2022/11/26 09:19:12;;;;;;;;;;;;;;;5.59;65.11;95406.81;4144399;28;20050;-56
2022/11/26 09:21:14;;;;;;;18.45;14.13;;;;;;;5.75;65.40;95402.16;4156346;28;20155;-58
2022/11/26 09:23:16;;;;;;;19.77;14.98;;;;;;;5.69;64.70;95402.59;4171456;28;20101;-55
2022/11/26 09:25:17;;;;;;;19.13;14.00;;;;;;;5.69;64.55;95406.97;4149310;28;20368;-56
2022/11/26 09:27:19;;;;;;;17.75;13.23;;;;;;;5.39;65.77;95404.84;4173767;28;20056;-56
2022/11/26 09:29:22;;;;;;;20.17;15.18;;;;;;;5.33;65.73;95401.75;4169676;28;20056;-55
2022/11/26 09:31:24;;;;;;;18.52;14.48;;;;;;;5.46;65.88;95393.91;4162784;28;20121;-54
2022/11/26 09:33:26;;;;;;;23.30;16.33;;;;;;;5.60;65.04;95398.09;4163037;28;20076;-54
2022/11/26 09:35:28;;;;;;;18.45;14.07;;;;;;;5.78;65.06;95390.72;4147928;28;20061;-57
2022/11/26 09:37:30;;;;;;;18.40;13.95;;;;;;;5.92;64.49;95394.91;4169000;28;20060;-54
2022/11/26 09:39:32;;;;;;;20.10;15.15;;;;;;;6.20;64.05;95390.28;4159460;28;20112;-52